sensor_id;sensor_type;location;lat;lon;timestamp;P1;durP1;ratioP1;P2;durP2;ratioP2
59281;SDS011;45054;52.062;10.010;2024-03-23T00:55:45;5.85;;;0.98;;
59281;SDS011;45054;52.062;10.010;2024-03-23T00:58:10;1.65;;;0.60;;
59281;SDS011;45054;52.062;10.010;2024-03-23T01:00:36;0.38;;;0.38;;
59281;SDS011;45054;52.062;10.010;2024-03-23T01:03:01;0.00;;;0.00;;
59281;SDS011;45054;52.062;10.010;2024-03-23T01:05:27;0.98;;;0.90;;
59281;SDS011;45054;52.062;10.010;2024-03-23T01:07:53;0.00;;;0.00;;
59281;SDS011;45054;52.062;10.010;2024-03-23T01:10:19;0.47;;;0.40;;
59281;SDS011;45054;52.062;10.010;2024-03-23T01:12:45;0.20;;;0.20;;
59281;SDS011;45054;52.062;10.010;2024-03-23T01:15:10;1.55;;;0.55;;
59281;SDS011;45054;52.062;10.010;2024-03-23T01:17:36;0.20;;;0.20;;
59281;SDS011;45054;52.062;10.010;2024-03-23T01:20:02;0.57;;;0.57;;
59281;SDS011;45054;52.062;10.010;2024-03-23T01:22:27;0.32;;;0.32;;
59281;SDS011;45054;52.062;10.010;2024-03-23T01:24:53;0.00;;;0.00;;
59281;SDS011;45054;52.062;10.010;2024-03-23T01:27:20;0.00;;;0.00;;
59281;SDS011;45054;52.062;10.010;2024-03-23T01:29:45;0.00;;;0.00;;
59281;SDS011;45054;52.062;10.010;2024-03-23T01:32:11;0.00;;;0.00;;
59281;SDS011;45054;52.062;10.010;2024-03-23T01:34:36;0.30;;;0.30;;
59281;SDS011;45054;52.062;10.010;2024-03-23T01:37:02;0.00;;;0.00;;
59281;SDS011;45054;52.062;10.010;2024-03-23T01:39:28;0.70;;;0.60;;
59281;SDS011;45054;52.062;10.010;2024-03-23T01:41:53;0.47;;;0.25;;
59281;SDS011;45054;52.062;10.010;2024-03-23T01:44:20;0.00;;;0.00;;
59281;SDS011;45054;52.062;10.010;2024-03-23T01:46:46;0.00;;;0.00;;
59281;SDS011;45054;52.062;10.010;2024-03-23T01:49:12;0.10;;;0.10;;
59281;SDS011;45054;52.062;10.010;2024-03-23T01:51:38;16.45;;;1.10;;
59281;SDS011;45054;52.062;10.010;2024-03-23T01:54:03;0.65;;;0.65;;
59281;SDS011;45054;52.062;10.010;2024-03-23T01:56:31;1.27;;;1.20;;
59281;SDS011;45054;52.062;10.010;2024-03-23T01:58:57;2.90;;;1.50;;
59281;SDS011;45054;52.062;10.010;2024-03-23T02:01:24;0.00;;;0.00;;
59281;SDS011;45054;52.062;10.010;2024-03-23T02:03:50;0.70;;;0.70;;
59281;SDS011;45054;52.062;10.010;2024-03-23T02:06:15;0.00;;;0.00;;
59281;SDS011;45054;52.062;10.010;2024-03-23T02:08:41;0.00;;;0.00;;
59281;SDS011;45054;52.062;10.010;2024-03-23T02:11:07;0.57;;;0.47;;
59281;SDS011;45054;52.062;10.010;2024-03-23T02:13:33;0.30;;;0.25;;
59281;SDS011;45054;52.062;10.010;2024-03-23T02:15:58;0.00;;;0.00;;
59281;SDS011;45054;52.062;10.010;2024-03-23T02:18:25;1.67;;;0.43;;
59281;SDS011;45054;52.062;10.010;2024-03-23T02:20:51;0.03;;;0.03;;
59281;SDS011;45054;52.062;10.010;2024-03-23T02:23:18;0.00;;;0.00;;
59281;SDS011;45054;52.062;10.010;2024-03-23T02:25:43;0.00;;;0.00;;
59281;SDS011;45054;52.062;10.010;2024-03-23T02:28:09;5.78;;;1.55;;
59281;SDS011;45054;52.062;10.010;2024-03-23T02:30:35;0.05;;;0.03;;
59281;SDS011;45054;52.062;10.010;2024-03-23T02:33:00;0.40;;;0.40;;
59281;SDS011;45054;52.062;10.010;2024-03-23T02:35:26;0.00;;;0.00;;
59281;SDS011;45054;52.062;10.010;2024-03-23T02:37:52;8.77;;;0.55;;
59281;SDS011;45054;52.062;10.010;2024-03-23T02:40:19;0.00;;;0.00;;
59281;SDS011;45054;52.062;10.010;2024-03-23T02:42:45;0.00;;;0.00;;
59281;SDS011;45054;52.062;10.010;2024-03-23T02:45:10;0.00;;;0.00;;
59281;SDS011;45054;52.062;10.010;2024-03-23T02:47:36;0.00;;;0.00;;
59281;SDS011;45054;52.062;10.010;2024-03-23T02:50:02;0.65;;;0.43;;
59281;SDS011;45054;52.062;10.010;2024-03-23T02:52:28;1.25;;;1.25;;
59281;SDS011;45054;52.062;10.010;2024-03-23T02:54:53;0.10;;;0.10;;
59281;SDS011;45054;52.062;10.010;2024-03-23T02:57:20;0.20;;;0.20;;
59281;SDS011;45054;52.062;10.010;2024-03-23T02:59:46;0.25;;;0.25;;
59281;SDS011;45054;52.062;10.010;2024-03-23T03:02:12;0.00;;;0.00;;
59281;SDS011;45054;52.062;10.010;2024-03-23T03:04:39;0.20;;;0.20;;
59281;SDS011;45054;52.062;10.010;2024-03-23T03:07:04;0.00;;;0.00;;
59281;SDS011;45054;52.062;10.010;2024-03-23T03:09:30;1.80;;;1.20;;
59281;SDS011;45054;52.062;10.010;2024-03-23T03:11:55;0.00;;;0.00;;
59281;SDS011;45054;52.062;10.010;2024-03-23T03:14:22;0.00;;;0.00;;
59281;SDS011;45054;52.062;10.010;2024-03-23T03:16:48;0.10;;;0.10;;
59281;SDS011;45054;52.062;10.010;2024-03-23T03:19:13;0.00;;;0.00;;
59281;SDS011;45054;52.062;10.010;2024-03-23T03:21:39;0.03;;;0.03;;
59281;SDS011;45054;52.062;10.010;2024-03-23T03:24:05;0.00;;;0.00;;
59281;SDS011;45054;52.062;10.010;2024-03-23T03:26:31;0.25;;;0.10;;
59281;SDS011;45054;52.062;10.010;2024-03-23T03:28:57;0.00;;;0.00;;
59281;SDS011;45054;52.062;10.010;2024-03-23T03:31:24;0.08;;;0.03;;
59281;SDS011;45054;52.062;10.010;2024-03-23T03:33:50;0.80;;;0.80;;
59281;SDS011;45054;52.062;10.010;2024-03-23T03:36:15;0.00;;;0.00;;
59281;SDS011;45054;52.062;10.010;2024-03-23T03:38:41;0.52;;;0.40;;
59281;SDS011;45054;52.062;10.010;2024-03-23T03:41:06;0.20;;;0.20;;
59281;SDS011;45054;52.062;10.010;2024-03-23T03:43:32;0.00;;;0.00;;
59281;SDS011;45054;52.062;10.010;2024-03-23T03:45:59;0.00;;;0.00;;
59281;SDS011;45054;52.062;10.010;2024-03-23T03:48:26;0.20;;;0.20;;
59281;SDS011;45054;52.062;10.010;2024-03-23T03:50:53;0.00;;;0.00;;
59281;SDS011;45054;52.062;10.010;2024-03-23T03:53:19;0.00;;;0.00;;
59281;SDS011;45054;52.062;10.010;2024-03-23T03:55:44;0.43;;;0.43;;
59281;SDS011;45054;52.062;10.010;2024-03-23T03:58:10;2.75;;;0.38;;
59281;SDS011;45054;52.062;10.010;2024-03-23T04:00:35;0.00;;;0.00;;
59281;SDS011;45054;52.062;10.010;2024-03-23T04:03:01;3.95;;;1.33;;
59281;SDS011;45054;52.062;10.010;2024-03-23T04:05:28;0.00;;;0.00;;
59281;SDS011;45054;52.062;10.010;2024-03-23T04:07:54;0.32;;;0.32;;
59281;SDS011;45054;52.062;10.010;2024-03-23T04:10:19;0.00;;;0.00;;
59281;SDS011;45054;52.062;10.010;2024-03-23T04:12:45;0.00;;;0.00;;
59281;SDS011;45054;52.062;10.010;2024-03-23T04:15:11;0.80;;;0.70;;
59281;SDS011;45054;52.062;10.010;2024-03-23T04:17:36;0.00;;;0.00;;
59281;SDS011;45054;52.062;10.010;2024-03-23T04:20:02;0.63;;;0.47;;
59281;SDS011;45054;52.062;10.010;2024-03-23T04:22:30;0.00;;;0.00;;
59281;SDS011;45054;52.062;10.010;2024-03-23T04:24:56;0.47;;;0.32;;
59281;SDS011;45054;52.062;10.010;2024-03-23T04:27:22;0.10;;;0.10;;
59281;SDS011;45054;52.062;10.010;2024-03-23T04:29:47;0.00;;;0.00;;
59281;SDS011;45054;52.062;10.010;2024-03-23T04:32:13;0.00;;;0.00;;
59281;SDS011;45054;52.062;10.010;2024-03-23T04:34:38;0.00;;;0.00;;
59281;SDS011;45054;52.062;10.010;2024-03-23T04:37:04;0.00;;;0.00;;
59281;SDS011;45054;52.062;10.010;2024-03-23T04:39:31;0.00;;;0.00;;
59281;SDS011;45054;52.062;10.010;2024-03-23T04:41:56;0.00;;;0.00;;
59281;SDS011;45054;52.062;10.010;2024-03-23T04:44:22;0.00;;;0.00;;
59281;SDS011;45054;52.062;10.010;2024-03-23T04:46:47;1.88;;;0.93;;
59281;SDS011;45054;52.062;10.010;2024-03-23T04:49:13;0.00;;;0.00;;
59281;SDS011;45054;52.062;10.010;2024-03-23T04:51:39;0.05;;;0.05;;
59281;SDS011;45054;52.062;10.010;2024-03-23T04:54:04;0.00;;;0.00;;
59281;SDS011;45054;52.062;10.010;2024-03-23T04:56:31;0.00;;;0.00;;
59281;SDS011;45054;52.062;10.010;2024-03-23T04:58:57;0.30;;;0.30;;
59281;SDS011;45054;52.062;10.010;2024-03-23T05:01:22;0.28;;;0.17;;
59281;SDS011;45054;52.062;10.010;2024-03-23T05:03:48;0.00;;;0.00;;
59281;SDS011;45054;52.062;10.010;2024-03-23T05:06:13;0.00;;;0.00;;
59281;SDS011;45054;52.062;10.010;2024-03-23T05:08:39;0.00;;;0.00;;
59281;SDS011;45054;52.062;10.010;2024-03-23T05:11:04;0.22;;;0.05;;
59281;SDS011;45054;52.062;10.010;2024-03-23T05:13:31;0.00;;;0.00;;
59281;SDS011;45054;52.062;10.010;2024-03-23T05:15:57;0.03;;;0.03;;
59281;SDS011;45054;52.062;10.010;2024-03-23T05:18:22;0.00;;;0.00;;
59281;SDS011;45054;52.062;10.010;2024-03-23T05:20:48;0.00;;;0.00;;
59281;SDS011;45054;52.062;10.010;2024-03-23T05:23:20;0.00;;;0.00;;
59281;SDS011;45054;52.062;10.010;2024-03-23T05:25:45;0.00;;;0.00;;
59281;SDS011;45054;52.062;10.010;2024-03-23T05:28:11;0.00;;;0.00;;
59281;SDS011;45054;52.062;10.010;2024-03-23T05:30:38;0.13;;;0.13;;
59281;SDS011;45054;52.062;10.010;2024-03-23T05:33:03;0.00;;;0.00;;
59281;SDS011;45054;52.062;10.010;2024-03-23T05:35:29;0.00;;;0.00;;
59281;SDS011;45054;52.062;10.010;2024-03-23T05:37:55;0.00;;;0.00;;
59281;SDS011;45054;52.062;10.010;2024-03-23T05:40:20;0.00;;;0.00;;
59281;SDS011;45054;52.062;10.010;2024-03-23T05:42:46;0.00;;;0.00;;
59281;SDS011;45054;52.062;10.010;2024-03-23T05:45:11;0.00;;;0.00;;
59281;SDS011;45054;52.062;10.010;2024-03-23T05:47:38;0.00;;;0.00;;
59281;SDS011;45054;52.062;10.010;2024-03-23T05:50:04;0.05;;;0.05;;
59281;SDS011;45054;52.062;10.010;2024-03-23T05:52:30;0.00;;;0.00;;
59281;SDS011;45054;52.062;10.010;2024-03-23T05:54:56;0.00;;;0.00;;
59281;SDS011;45054;52.062;10.010;2024-03-23T05:57:21;0.00;;;0.00;;
59281;SDS011;45054;52.062;10.010;2024-03-23T05:59:47;0.00;;;0.00;;
59281;SDS011;45054;52.062;10.010;2024-03-23T06:02:12;0.00;;;0.00;;
59281;SDS011;45054;52.062;10.010;2024-03-23T06:04:39;0.22;;;0.22;;
59281;SDS011;45054;52.062;10.010;2024-03-23T06:07:05;0.20;;;0.17;;
59281;SDS011;45054;52.062;10.010;2024-03-23T06:09:30;0.00;;;0.00;;
59281;SDS011;45054;52.062;10.010;2024-03-23T06:11:56;0.00;;;0.00;;
59281;SDS011;45054;52.062;10.010;2024-03-23T06:14:21;0.00;;;0.00;;
59281;SDS011;45054;52.062;10.010;2024-03-23T06:16:47;0.00;;;0.00;;
59281;SDS011;45054;52.062;10.010;2024-03-23T06:19:12;0.60;;;0.40;;
59281;SDS011;45054;52.062;10.010;2024-03-23T06:21:43;0.00;;;0.00;;
59281;SDS011;45054;52.062;10.010;2024-03-23T06:24:09;0.00;;;0.00;;
59281;SDS011;45054;52.062;10.010;2024-03-23T06:26:35;0.00;;;0.00;;
59281;SDS011;45054;52.062;10.010;2024-03-23T06:29:01;0.00;;;0.00;;
59281;SDS011;45054;52.062;10.010;2024-03-23T06:31:26;0.00;;;0.00;;
59281;SDS011;45054;52.062;10.010;2024-03-23T06:33:52;0.15;;;0.15;;
59281;SDS011;45054;52.062;10.010;2024-03-23T06:36:17;0.00;;;0.00;;
59281;SDS011;45054;52.062;10.010;2024-03-23T06:38:44;1.75;;;0.65;;
59281;SDS011;45054;52.062;10.010;2024-03-23T06:41:10;0.20;;;0.20;;
59281;SDS011;45054;52.062;10.010;2024-03-23T06:43:35;0.00;;;0.00;;
59281;SDS011;45054;52.062;10.010;2024-03-23T06:46:01;0.22;;;0.22;;
59281;SDS011;45054;52.062;10.010;2024-03-23T06:48:27;2.92;;;1.48;;
59281;SDS011;45054;52.062;10.010;2024-03-23T06:50:55;1.17;;;0.98;;
59281;SDS011;45054;52.062;10.010;2024-03-23T06:53:21;0.00;;;0.00;;
59281;SDS011;45054;52.062;10.010;2024-03-23T06:55:51;0.15;;;0.15;;
59281;SDS011;45054;52.062;10.010;2024-03-23T06:58:17;0.00;;;0.00;;
59281;SDS011;45054;52.062;10.010;2024-03-23T07:00:43;0.10;;;0.10;;
59281;SDS011;45054;52.062;10.010;2024-03-23T07:03:08;0.00;;;0.00;;
59281;SDS011;45054;52.062;10.010;2024-03-23T07:05:34;0.38;;;0.38;;
59281;SDS011;45054;52.062;10.010;2024-03-23T07:07:59;0.00;;;0.00;;
59281;SDS011;45054;52.062;10.010;2024-03-23T07:10:25;0.00;;;0.00;;
59281;SDS011;45054;52.062;10.010;2024-03-23T07:12:52;0.00;;;0.00;;
59281;SDS011;45054;52.062;10.010;2024-03-23T07:15:17;0.00;;;0.00;;
59281;SDS011;45054;52.062;10.010;2024-03-23T07:17:46;0.00;;;0.00;;
59281;SDS011;45054;52.062;10.010;2024-03-23T07:20:11;0.05;;;0.05;;
59281;SDS011;45054;52.062;10.010;2024-03-23T07:22:37;0.00;;;0.00;;
59281;SDS011;45054;52.062;10.010;2024-03-23T07:25:03;0.00;;;0.00;;
59281;SDS011;45054;52.062;10.010;2024-03-23T07:27:29;0.00;;;0.00;;
59281;SDS011;45054;52.062;10.010;2024-03-23T07:29:56;0.00;;;0.00;;
59281;SDS011;45054;52.062;10.010;2024-03-23T07:32:22;0.65;;;0.52;;
59281;SDS011;45054;52.062;10.010;2024-03-23T07:34:48;0.00;;;0.00;;
59281;SDS011;45054;52.062;10.010;2024-03-23T07:37:14;0.00;;;0.00;;
59281;SDS011;45054;52.062;10.010;2024-03-23T07:39:39;6.88;;;0.43;;
59281;SDS011;45054;52.062;10.010;2024-03-23T07:42:05;0.00;;;0.00;;
59281;SDS011;45054;52.062;10.010;2024-03-23T07:44:31;0.00;;;0.00;;
59281;SDS011;45054;52.062;10.010;2024-03-23T07:46:58;0.00;;;0.00;;
59281;SDS011;45054;52.062;10.010;2024-03-23T07:49:25;0.00;;;0.00;;
59281;SDS011;45054;52.062;10.010;2024-03-23T07:51:50;0.10;;;0.10;;
59281;SDS011;45054;52.062;10.010;2024-03-23T07:54:16;0.00;;;0.00;;
59281;SDS011;45054;52.062;10.010;2024-03-23T07:56:41;0.00;;;0.00;;
59281;SDS011;45054;52.062;10.010;2024-03-23T07:59:07;0.00;;;0.00;;
59281;SDS011;45054;52.062;10.010;2024-03-23T08:01:44;0.00;;;0.00;;
59281;SDS011;45054;52.062;10.010;2024-03-23T08:08:05;0.00;;;0.00;;
59281;SDS011;45054;52.062;10.010;2024-03-23T08:10:31;5.30;;;1.20;;
59281;SDS011;45054;52.062;10.010;2024-03-23T08:12:57;0.00;;;0.00;;
59281;SDS011;45054;52.062;10.010;2024-03-23T08:15:22;0.43;;;0.43;;
59281;SDS011;45054;52.062;10.010;2024-03-23T08:17:48;0.43;;;0.43;;
59281;SDS011;45054;52.062;10.010;2024-03-23T08:20:14;0.00;;;0.00;;
59281;SDS011;45054;52.062;10.010;2024-03-23T08:22:39;0.20;;;0.20;;
59281;SDS011;45054;52.062;10.010;2024-03-23T08:25:09;0.93;;;0.88;;
59281;SDS011;45054;52.062;10.010;2024-03-23T08:27:34;0.00;;;0.00;;
59281;SDS011;45054;52.062;10.010;2024-03-23T08:30:00;0.10;;;0.10;;
59281;SDS011;45054;52.062;10.010;2024-03-23T08:32:25;0.00;;;0.00;;
59281;SDS011;45054;52.062;10.010;2024-03-23T08:34:51;0.10;;;0.10;;
59281;SDS011;45054;52.062;10.010;2024-03-23T08:37:16;0.00;;;0.00;;
59281;SDS011;45054;52.062;10.010;2024-03-23T08:39:43;0.13;;;0.13;;
59281;SDS011;45054;52.062;10.010;2024-03-23T08:42:10;0.00;;;0.00;;
59281;SDS011;45054;52.062;10.010;2024-03-23T08:44:35;0.00;;;0.00;;
59281;SDS011;45054;52.062;10.010;2024-03-23T08:47:01;0.20;;;0.20;;
59281;SDS011;45054;52.062;10.010;2024-03-23T08:49:26;3.17;;;0.63;;
59281;SDS011;45054;52.062;10.010;2024-03-23T08:51:52;0.00;;;0.00;;
59281;SDS011;45054;52.062;10.010;2024-03-23T08:54:18;0.13;;;0.13;;
59281;SDS011;45054;52.062;10.010;2024-03-23T08:56:44;0.38;;;0.38;;
59281;SDS011;45054;52.062;10.010;2024-03-23T08:59:11;0.45;;;0.45;;
59281;SDS011;45054;52.062;10.010;2024-03-23T09:01:36;0.80;;;0.80;;
59281;SDS011;45054;52.062;10.010;2024-03-23T09:04:02;0.25;;;0.25;;
59281;SDS011;45054;52.062;10.010;2024-03-23T09:06:27;0.00;;;0.00;;
59281;SDS011;45054;52.062;10.010;2024-03-23T09:08:53;2.45;;;2.00;;
59281;SDS011;45054;52.062;10.010;2024-03-23T09:11:18;0.50;;;0.50;;
59281;SDS011;45054;52.062;10.010;2024-03-23T09:13:44;0.00;;;0.00;;
59281;SDS011;45054;52.062;10.010;2024-03-23T09:16:11;0.32;;;0.32;;
59281;SDS011;45054;52.062;10.010;2024-03-23T09:18:38;2.40;;;0.95;;
59281;SDS011;45054;52.062;10.010;2024-03-23T09:21:04;0.45;;;0.45;;
59281;SDS011;45054;52.062;10.010;2024-03-23T09:23:36;0.40;;;0.40;;
59281;SDS011;45054;52.062;10.010;2024-03-23T09:26:02;0.20;;;0.20;;
59281;SDS011;45054;52.062;10.010;2024-03-23T09:28:28;0.60;;;0.60;;
59281;SDS011;45054;52.062;10.010;2024-03-23T09:30:53;1.65;;;1.33;;
59281;SDS011;45054;52.062;10.010;2024-03-23T09:33:20;0.00;;;0.00;;
59281;SDS011;45054;52.062;10.010;2024-03-23T09:35:46;0.00;;;0.00;;
59281;SDS011;45054;52.062;10.010;2024-03-23T09:38:11;2.35;;;0.88;;
59281;SDS011;45054;52.062;10.010;2024-03-23T09:40:39;0.00;;;0.00;;
59281;SDS011;45054;52.062;10.010;2024-03-23T09:43:06;5.53;;;1.17;;
59281;SDS011;45054;52.062;10.010;2024-03-23T09:45:32;0.35;;;0.35;;
59281;SDS011;45054;52.062;10.010;2024-03-23T09:48:00;0.88;;;0.80;;
59281;SDS011;45054;52.062;10.010;2024-03-23T09:50:27;0.03;;;0.03;;
59281;SDS011;45054;52.062;10.010;2024-03-23T09:52:53;0.55;;;0.32;;
59281;SDS011;45054;52.062;10.010;2024-03-23T09:55:19;0.90;;;0.68;;
59281;SDS011;45054;52.062;10.010;2024-03-23T09:57:44;0.20;;;0.20;;
59281;SDS011;45054;52.062;10.010;2024-03-23T10:00:11;0.70;;;0.70;;
59281;SDS011;45054;52.062;10.010;2024-03-23T10:02:37;0.00;;;0.00;;
59281;SDS011;45054;52.062;10.010;2024-03-23T10:05:03;0.03;;;0.03;;
59281;SDS011;45054;52.062;10.010;2024-03-23T10:07:30;1.50;;;1.40;;
59281;SDS011;45054;52.062;10.010;2024-03-23T10:09:56;0.63;;;0.52;;
59281;SDS011;45054;52.062;10.010;2024-03-23T10:12:22;0.85;;;0.85;;
59281;SDS011;45054;52.062;10.010;2024-03-23T10:14:48;0.93;;;0.65;;
59281;SDS011;45054;52.062;10.010;2024-03-23T10:17:15;9.10;;;1.45;;
59281;SDS011;45054;52.062;10.010;2024-03-23T10:19:41;0.20;;;0.20;;
59281;SDS011;45054;52.062;10.010;2024-03-23T10:22:08;0.57;;;0.57;;
59281;SDS011;45054;52.062;10.010;2024-03-23T10:24:36;0.00;;;0.00;;
59281;SDS011;45054;52.062;10.010;2024-03-23T10:27:01;0.10;;;0.10;;
59281;SDS011;45054;52.062;10.010;2024-03-23T10:29:27;0.05;;;0.05;;
59281;SDS011;45054;52.062;10.010;2024-03-23T10:31:52;0.00;;;0.00;;
59281;SDS011;45054;52.062;10.010;2024-03-23T10:34:21;0.25;;;0.25;;
59281;SDS011;45054;52.062;10.010;2024-03-23T10:36:50;0.35;;;0.25;;
59281;SDS011;45054;52.062;10.010;2024-03-23T10:39:18;0.00;;;0.00;;
59281;SDS011;45054;52.062;10.010;2024-03-23T10:41:47;0.00;;;0.00;;
59281;SDS011;45054;52.062;10.010;2024-03-23T10:46:41;0.00;;;0.00;;
59281;SDS011;45054;52.062;10.010;2024-03-23T10:49:07;0.35;;;0.35;;
59281;SDS011;45054;52.062;10.010;2024-03-23T10:51:32;0.00;;;0.00;;
59281;SDS011;45054;52.062;10.010;2024-03-23T10:53:58;0.00;;;0.00;;
59281;SDS011;45054;52.062;10.010;2024-03-23T10:56:28;1.20;;;0.55;;
59281;SDS011;45054;52.062;10.010;2024-03-23T10:58:57;0.20;;;0.20;;
59281;SDS011;45054;52.062;10.010;2024-03-23T11:01:23;0.85;;;0.43;;
59281;SDS011;45054;52.062;10.010;2024-03-23T11:03:48;0.00;;;0.00;;
59281;SDS011;45054;52.062;10.010;2024-03-23T11:09:00;0.00;;;0.00;;
59281;SDS011;45054;52.062;10.010;2024-03-23T11:11:26;0.00;;;0.00;;
59281;SDS011;45054;52.062;10.010;2024-03-23T11:13:52;0.22;;;0.22;;
59281;SDS011;45054;52.062;10.010;2024-03-23T11:16:22;0.13;;;0.13;;
59281;SDS011;45054;52.062;10.010;2024-03-23T11:18:50;0.00;;;0.00;;
59281;SDS011;45054;52.062;10.010;2024-03-23T11:24:16;1.55;;;0.47;;
59281;SDS011;45054;52.062;10.010;2024-03-23T11:26:42;1.10;;;0.73;;
59281;SDS011;45054;52.062;10.010;2024-03-23T11:29:10;0.10;;;0.10;;
59281;SDS011;45054;52.062;10.010;2024-03-23T11:31:38;0.00;;;0.00;;
59281;SDS011;45054;52.062;10.010;2024-03-23T11:34:10;0.10;;;0.10;;
59281;SDS011;45054;52.062;10.010;2024-03-23T11:36:36;0.00;;;0.00;;
59281;SDS011;45054;52.062;10.010;2024-03-23T11:39:11;0.00;;;0.00;;
59281;SDS011;45054;52.062;10.010;2024-03-23T11:41:44;0.00;;;0.00;;
59281;SDS011;45054;52.062;10.010;2024-03-23T11:44:14;0.32;;;0.32;;
59281;SDS011;45054;52.062;10.010;2024-03-23T11:46:42;0.10;;;0.10;;
59281;SDS011;45054;52.062;10.010;2024-03-23T11:49:17;0.00;;;0.00;;
59281;SDS011;45054;52.062;10.010;2024-03-23T11:51:45;0.85;;;0.35;;
59281;SDS011;45054;52.062;10.010;2024-03-23T11:54:11;0.00;;;0.00;;
59281;SDS011;45054;52.062;10.010;2024-03-23T11:56:37;0.00;;;0.00;;
59281;SDS011;45054;52.062;10.010;2024-03-23T11:59:02;0.00;;;0.00;;
59281;SDS011;45054;52.062;10.010;2024-03-23T12:01:28;0.00;;;0.00;;
59281;SDS011;45054;52.062;10.010;2024-03-23T12:03:55;0.00;;;0.00;;
59281;SDS011;45054;52.062;10.010;2024-03-23T12:06:20;0.10;;;0.10;;
59281;SDS011;45054;52.062;10.010;2024-03-23T12:08:48;0.00;;;0.00;;
59281;SDS011;45054;52.062;10.010;2024-03-23T12:11:14;0.00;;;0.00;;
59281;SDS011;45054;52.062;10.010;2024-03-23T12:13:41;0.43;;;0.43;;
59281;SDS011;45054;52.062;10.010;2024-03-23T12:16:11;0.00;;;0.00;;
59281;SDS011;45054;52.062;10.010;2024-03-23T12:18:37;0.00;;;0.00;;
59281;SDS011;45054;52.062;10.010;2024-03-23T12:21:06;5.78;;;0.52;;
59281;SDS011;45054;52.062;10.010;2024-03-23T12:23:31;0.65;;;0.65;;
59281;SDS011;45054;52.062;10.010;2024-03-23T12:25:57;0.25;;;0.25;;
59281;SDS011;45054;52.062;10.010;2024-03-23T12:28:22;0.05;;;0.05;;
59281;SDS011;45054;52.062;10.010;2024-03-23T12:30:54;1.27;;;1.27;;
59281;SDS011;45054;52.062;10.010;2024-03-23T12:33:20;8.63;;;7.13;;
59281;SDS011;45054;52.062;10.010;2024-03-23T12:35:46;20.48;;;7.47;;
59281;SDS011;45054;52.062;10.010;2024-03-23T12:38:13;10.45;;;7.05;;
59281;SDS011;45054;52.062;10.010;2024-03-23T12:40:39;2.40;;;1.45;;
59281;SDS011;45054;52.062;10.010;2024-03-23T12:43:17;0.25;;;0.10;;
59281;SDS011;45054;52.062;10.010;2024-03-23T12:45:45;4.63;;;0.90;;
59281;SDS011;45054;52.062;10.010;2024-03-23T12:48:11;1.35;;;0.70;;
59281;SDS011;45054;52.062;10.010;2024-03-23T12:50:37;0.00;;;0.00;;
59281;SDS011;45054;52.062;10.010;2024-03-23T12:53:12;0.00;;;0.00;;
59281;SDS011;45054;52.062;10.010;2024-03-23T12:55:39;0.45;;;0.45;;
59281;SDS011;45054;52.062;10.010;2024-03-23T12:58:09;0.20;;;0.20;;
59281;SDS011;45054;52.062;10.010;2024-03-23T13:00:40;0.20;;;0.20;;
59281;SDS011;45054;52.062;10.010;2024-03-23T13:03:06;0.00;;;0.00;;
59281;SDS011;45054;52.062;10.010;2024-03-23T13:08:41;0.00;;;0.00;;
59281;SDS011;45054;52.062;10.010;2024-03-23T13:11:08;0.00;;;0.00;;
59281;SDS011;45054;52.062;10.010;2024-03-23T13:13:37;0.00;;;0.00;;
59281;SDS011;45054;52.062;10.010;2024-03-23T13:16:03;0.00;;;0.00;;
59281;SDS011;45054;52.062;10.010;2024-03-23T13:18:32;0.00;;;0.00;;
59281;SDS011;45054;52.062;10.010;2024-03-23T13:20:58;0.40;;;0.32;;
59281;SDS011;45054;52.062;10.010;2024-03-23T13:23:24;0.00;;;0.00;;
59281;SDS011;45054;52.062;10.010;2024-03-23T13:25:51;0.00;;;0.00;;
59281;SDS011;45054;52.062;10.010;2024-03-23T13:28:17;0.00;;;0.00;;
59281;SDS011;45054;52.062;10.010;2024-03-23T13:30:49;0.00;;;0.00;;
59281;SDS011;45054;52.062;10.010;2024-03-23T13:33:15;0.00;;;0.00;;
59281;SDS011;45054;52.062;10.010;2024-03-23T13:35:48;0.00;;;0.00;;
59281;SDS011;45054;52.062;10.010;2024-03-23T13:38:14;0.00;;;0.00;;
59281;SDS011;45054;52.062;10.010;2024-03-23T13:40:48;0.00;;;0.00;;
59281;SDS011;45054;52.062;10.010;2024-03-23T13:43:16;0.00;;;0.00;;
59281;SDS011;45054;52.062;10.010;2024-03-23T13:45:42;0.10;;;0.10;;
59281;SDS011;45054;52.062;10.010;2024-03-23T13:48:07;0.22;;;0.20;;
59281;SDS011;45054;52.062;10.010;2024-03-23T13:50:33;0.00;;;0.00;;
59281;SDS011;45054;52.062;10.010;2024-03-23T13:52:59;0.03;;;0.03;;
59281;SDS011;45054;52.062;10.010;2024-03-23T13:55:24;0.40;;;0.30;;
59281;SDS011;45054;52.062;10.010;2024-03-23T13:57:50;0.00;;;0.00;;
59281;SDS011;45054;52.062;10.010;2024-03-23T14:00:17;0.00;;;0.00;;
59281;SDS011;45054;52.062;10.010;2024-03-23T14:02:43;5.82;;;0.70;;
59281;SDS011;45054;52.062;10.010;2024-03-23T14:05:08;0.00;;;0.00;;
59281;SDS011;45054;52.062;10.010;2024-03-23T14:07:34;0.17;;;0.17;;
59281;SDS011;45054;52.062;10.010;2024-03-23T14:10:02;0.20;;;0.20;;
59281;SDS011;45054;52.062;10.010;2024-03-23T14:12:27;6.78;;;1.48;;
59281;SDS011;45054;52.062;10.010;2024-03-23T14:14:53;0.00;;;0.00;;
59281;SDS011;45054;52.062;10.010;2024-03-23T14:17:20;0.00;;;0.00;;
59281;SDS011;45054;52.062;10.010;2024-03-23T14:19:45;0.00;;;0.00;;
59281;SDS011;45054;52.062;10.010;2024-03-23T14:22:11;0.08;;;0.08;;
59281;SDS011;45054;52.062;10.010;2024-03-23T14:24:37;0.20;;;0.20;;
59281;SDS011;45054;52.062;10.010;2024-03-23T14:27:02;0.00;;;0.00;;
59281;SDS011;45054;52.062;10.010;2024-03-23T14:29:28;0.00;;;0.00;;
59281;SDS011;45054;52.062;10.010;2024-03-23T14:31:54;0.20;;;0.10;;
59281;SDS011;45054;52.062;10.010;2024-03-23T14:34:21;0.00;;;0.00;;
59281;SDS011;45054;52.062;10.010;2024-03-23T14:36:46;0.00;;;0.00;;
59281;SDS011;45054;52.062;10.010;2024-03-23T14:39:12;0.10;;;0.10;;
59281;SDS011;45054;52.062;10.010;2024-03-23T14:41:37;0.25;;;0.25;;
59281;SDS011;45054;52.062;10.010;2024-03-23T14:44:03;0.00;;;0.00;;
59281;SDS011;45054;52.062;10.010;2024-03-23T14:46:29;0.00;;;0.00;;
59281;SDS011;45054;52.062;10.010;2024-03-23T14:48:54;0.00;;;0.00;;
59281;SDS011;45054;52.062;10.010;2024-03-23T14:51:24;0.00;;;0.00;;
59281;SDS011;45054;52.062;10.010;2024-03-23T14:53:49;0.00;;;0.00;;
59281;SDS011;45054;52.062;10.010;2024-03-23T14:56:15;0.00;;;0.00;;
59281;SDS011;45054;52.062;10.010;2024-03-23T14:58:41;0.00;;;0.00;;
59281;SDS011;45054;52.062;10.010;2024-03-23T15:01:11;0.00;;;0.00;;
59281;SDS011;45054;52.062;10.010;2024-03-23T15:03:36;0.00;;;0.00;;
59281;SDS011;45054;52.062;10.010;2024-03-23T15:06:02;0.00;;;0.00;;
59281;SDS011;45054;52.062;10.010;2024-03-23T15:08:29;0.00;;;0.00;;
59281;SDS011;45054;52.062;10.010;2024-03-23T15:10:58;1.95;;;0.47;;
59281;SDS011;45054;52.062;10.010;2024-03-23T15:13:24;0.20;;;0.20;;
59281;SDS011;45054;52.062;10.010;2024-03-23T15:15:49;0.00;;;0.00;;
59281;SDS011;45054;52.062;10.010;2024-03-23T15:18:15;0.00;;;0.00;;
59281;SDS011;45054;52.062;10.010;2024-03-23T15:20:40;0.00;;;0.00;;
59281;SDS011;45054;52.062;10.010;2024-03-23T15:23:06;0.32;;;0.32;;
59281;SDS011;45054;52.062;10.010;2024-03-23T15:25:33;0.00;;;0.00;;
59281;SDS011;45054;52.062;10.010;2024-03-23T15:27:59;0.20;;;0.20;;
59281;SDS011;45054;52.062;10.010;2024-03-23T15:30:24;0.00;;;0.00;;
59281;SDS011;45054;52.062;10.010;2024-03-23T15:32:50;0.00;;;0.00;;
59281;SDS011;45054;52.062;10.010;2024-03-23T15:35:15;0.00;;;0.00;;
59281;SDS011;45054;52.062;10.010;2024-03-23T15:37:41;1.90;;;0.73;;